createdAt,value
2023-05-02T00:03:13.803Z,101962.47
2023-05-02T00:08:35.884Z,101967.41
2023-05-02T00:13:58.633Z,101967.63
2023-05-02T00:19:20.528Z,101971.47
2023-05-02T00:24:42.396Z,101981.09
2023-05-02T00:30:04.663Z,101982.19
2023-05-02T00:35:26.491Z,101984.31
2023-05-02T00:40:51.427Z,101989.88
2023-05-02T00:46:13.863Z,101992.03
2023-05-02T00:51:35.732Z,101991.44
2023-05-02T00:56:57.854Z,101999.75
2023-05-02T01:02:51.531Z,101998.88
2023-05-02T01:08:34.532Z,102001.66
2023-05-02T01:13:59.417Z,102004.66
2023-05-02T01:19:35.712Z,102006.56
2023-05-02T01:25:11.920Z,102003.22
2023-05-02T01:30:34.317Z,102012.19
2023-05-02T01:35:57.826Z,102013.03
2023-05-02T01:41:21.183Z,102015.81
2023-05-02T01:46:44.787Z,102014.34
2023-05-02T01:52:11.830Z,102008.81
2023-05-02T01:57:33.771Z,101997.91
2023-05-02T02:02:57.811Z,101997.06
2023-05-02T02:08:19.696Z,102001.75
2023-05-02T02:13:47.443Z,102020.09
2023-05-02T02:19:13.721Z,102042.53
2023-05-02T02:24:40.242Z,102037.00
2023-05-02T02:30:02.313Z,102050.00
2023-05-02T02:35:31.853Z,102056.41
2023-05-02T02:40:57.819Z,102064.94
2023-05-02T02:47:12.452Z,102074.56
2023-05-02T02:52:46.365Z,102081.19
2023-05-02T02:58:20.938Z,102076.72
2023-05-02T03:03:44.717Z,102086.09
2023-05-02T03:09:07.018Z,102088.00
2023-05-02T03:14:28.868Z,102088.25
2023-05-02T03:19:50.805Z,102095.94
2023-05-02T03:25:12.810Z,102092.09
2023-05-02T03:30:35.490Z,102090.59
2023-05-02T03:35:57.275Z,102098.06
2023-05-02T03:41:21.189Z,102097.19
2023-05-02T03:46:43.487Z,102107.47
2023-05-02T03:52:05.342Z,102095.53
2023-05-02T03:57:30.682Z,102106.63
2023-05-02T04:02:52.816Z,102110.66
2023-05-02T04:08:14.959Z,102118.97
2023-05-02T04:13:36.672Z,102121.13
2023-05-02T04:18:59.282Z,102123.69
2023-05-02T04:24:21.155Z,102122.81
2023-05-02T04:29:43.035Z,102132.22
2023-05-02T04:35:05.763Z,102156.34
2023-05-02T04:40:27.645Z,102166.59
2023-05-02T04:45:49.420Z,102177.69
2023-05-02T04:51:11.403Z,102183.44
2023-05-02T04:56:33.192Z,102200.31
2023-05-02T05:01:54.966Z,102195.84
2023-05-02T05:07:16.811Z,102202.69
2023-05-02T05:12:38.673Z,102209.47
2023-05-02T05:18:00.441Z,102206.25
2023-05-02T05:23:22.343Z,102212.84
2023-05-02T05:28:44.788Z,102219.66
2023-05-02T05:34:06.998Z,102233.06
2023-05-02T05:39:28.854Z,102246.09
2023-05-02T05:44:51.844Z,102259.34
2023-05-02T05:50:13.639Z,102263.19
2023-05-02T05:55:37.377Z,102280.25
2023-05-02T06:00:59.329Z,102288.59
2023-05-02T06:06:21.489Z,102307.38
2023-05-02T06:11:43.372Z,102310.34
2023-05-02T06:17:05.539Z,102319.56
2023-05-02T06:22:27.513Z,102326.16
2023-05-02T06:27:49.545Z,102330.19
2023-05-02T06:33:12.618Z,102331.88
2023-05-02T06:38:34.435Z,102339.56
2023-05-02T06:43:56.308Z,102347.91
2023-05-02T06:49:18.076Z,102354.09
2023-05-02T06:54:40.169Z,102350.25
2023-05-02T07:00:02.245Z,102365.84
2023-05-02T07:05:24.392Z,102373.28
2023-05-02T07:10:46.281Z,102381.81
2023-05-02T07:16:08.428Z,102384.94
2023-05-02T07:21:30.658Z,102378.31
2023-05-02T07:26:52.470Z,102391.72
2023-05-02T07:32:14.298Z,102385.69
2023-05-02T07:37:36.714Z,102396.09
2023-05-02T07:42:58.989Z,102394.31
2023-05-02T07:48:21.049Z,102382.72
2023-05-02T07:53:42.848Z,102383.53
2023-05-02T07:59:05.727Z,102392.72
2023-05-02T08:04:27.775Z,102399.34
2023-05-02T08:09:49.716Z,102412.22
2023-05-02T08:15:16.107Z,102420.31
2023-05-02T08:20:37.943Z,102441.94
2023-05-02T08:25:59.763Z,102438.69
2023-05-02T08:31:21.857Z,102434.19
2023-05-02T08:36:43.710Z,102442.75
2023-05-02T08:42:08.929Z,102444.72
2023-05-02T08:47:32.160Z,102448.56
2023-05-02T08:52:54.390Z,102452.81
2023-05-02T08:58:17.516Z,102461.78
2023-05-02T09:03:40.898Z,102462.88
2023-05-02T09:09:03.450Z,102459.00
2023-05-02T09:14:25.365Z,102469.06
2023-05-02T09:19:47.987Z,102482.34
2023-05-02T09:25:10.460Z,102490.44
2023-05-02T09:30:32.997Z,102484.88
2023-05-02T09:35:56.071Z,102489.13
2023-05-02T09:41:22.466Z,102509.69
2023-05-02T09:46:48.940Z,102505.81
2023-05-02T09:52:13.153Z,102513.72
2023-05-02T09:57:41.952Z,102509.03
2023-05-02T10:03:07.100Z,102518.00
2023-05-02T10:08:29.357Z,102510.50
2023-05-02T10:13:52.791Z,102504.94
2023-05-02T10:19:23.864Z,102501.13
2023-05-02T10:24:49.988Z,102496.88
2023-05-02T10:30:14.370Z,102511.84
2023-05-02T10:35:37.892Z,102508.00
2023-05-02T10:41:03.719Z,102519.13
2023-05-02T10:46:37.238Z,102520.81
2023-05-02T10:51:59.290Z,102509.06
2023-05-02T10:57:21.559Z,102511.84
2023-05-02T11:02:43.516Z,102514.63
2023-05-02T11:08:22.222Z,102520.34
2023-05-02T11:13:51.516Z,102523.13
2023-05-02T11:19:13.317Z,102523.38
2023-05-02T11:24:42.921Z,102519.72
2023-05-02T11:30:09.451Z,102522.09
2023-05-02T11:35:32.325Z,102520.00
2023-05-02T11:40:59.764Z,102515.97
2023-05-02T11:46:21.911Z,102517.66
2023-05-02T11:51:44.016Z,102514.47
2023-05-02T11:57:05.879Z,102522.66
2023-05-02T12:02:37.729Z,102524.78
2023-05-02T12:08:01.451Z,102525.22
2023-05-02T12:13:25.514Z,102535.94
2023-05-02T12:18:48.430Z,102549.19
2023-05-02T12:24:11.162Z,102553.47
2023-05-02T12:29:44.179Z,102550.47
2023-05-02T12:35:21.069Z,102558.19
2023-05-02T12:40:58.717Z,102558.81
2023-05-02T12:46:21.019Z,102566.50
2023-05-02T12:51:54.207Z,102565.88
2023-05-02T12:57:26.574Z,102569.09
2023-05-02T13:02:48.428Z,102563.75
2023-05-02T13:08:10.423Z,102561.81
2023-05-02T13:13:33.005Z,102581.72
2023-05-02T13:18:55.123Z,102579.97
2023-05-02T13:24:17.814Z,102583.41
2023-05-02T13:29:39.594Z,102577.81
2023-05-02T13:35:01.622Z,102579.50
2023-05-02T13:40:23.415Z,102579.50
2023-05-02T13:45:45.501Z,102579.06
2023-05-02T13:51:08.015Z,102571.78
2023-05-02T13:56:29.863Z,102562.75
2023-05-02T14:01:51.886Z,102569.59
2023-05-02T14:07:13.812Z,102564.44
2023-05-02T14:12:35.801Z,102571.50
2023-05-02T14:17:57.737Z,102565.31
2023-05-02T14:23:19.552Z,102558.88
2023-05-02T14:28:41.505Z,102546.94
2023-05-02T14:34:03.377Z,102535.59
2023-05-02T14:39:25.147Z,102563.66
2023-05-02T14:44:47.278Z,102569.22
2023-05-02T14:50:09.515Z,102563.66
2023-05-02T14:55:35.958Z,102569.00
2023-05-02T15:00:57.760Z,102568.59
2023-05-02T15:06:19.829Z,102562.81
2023-05-02T15:11:42.047Z,102568.84
2023-05-02T15:17:03.954Z,102565.41
2023-05-02T15:22:26.300Z,102567.78
2023-05-02T15:27:48.074Z,102558.16
2023-05-02T15:33:10.411Z,102567.56
2023-05-02T15:38:34.289Z,102563.50
2023-05-02T15:43:57.550Z,102564.16
2023-05-02T15:49:19.342Z,102571.03
2023-05-02T15:54:41.163Z,102563.75
2023-05-02T16:00:03.889Z,102580.66
2023-05-02T16:05:26.155Z,102580.84
2023-05-02T16:10:47.938Z,102584.69
2023-05-02T16:16:09.760Z,102580.66
2023-05-02T16:21:32.038Z,102578.06
2023-05-02T16:26:53.805Z,102572.31
2023-05-02T16:32:15.707Z,102581.50
2023-05-02T16:37:37.778Z,102574.44
2023-05-02T16:42:59.747Z,102581.91
2023-05-02T16:48:23.125Z,102577.41
2023-05-02T16:53:46.495Z,102570.13
2023-05-02T16:59:08.262Z,102569.28
2023-05-02T17:04:30.029Z,102571.19
2023-05-02T17:09:51.958Z,102573.53
2023-05-02T17:15:16.369Z,102568.63
2023-05-02T17:20:38.571Z,102576.53
2023-05-02T17:26:00.825Z,102582.72
2023-05-02T17:31:23.752Z,102580.78
2023-05-02T17:36:46.583Z,102592.78
2023-05-02T17:42:08.454Z,102594.47
2023-05-02T17:47:30.224Z,102592.78
2023-05-02T17:52:52.024Z,102591.50
2023-05-02T17:58:14.360Z,102597.91
2023-05-02T18:03:36.736Z,102600.91
2023-05-02T18:08:59.713Z,102607.97
2023-05-02T18:14:21.715Z,102604.75
2023-05-02T18:19:44.447Z,102611.38
2023-05-02T18:25:06.889Z,102614.53
2023-05-02T18:30:29.137Z,102625.22
2023-05-02T18:35:51.023Z,102626.47
2023-05-02T18:41:13.255Z,102640.16
2023-05-02T18:46:35.096Z,102637.78
2023-05-02T18:51:56.910Z,102632.44
2023-05-02T18:57:18.703Z,102631.53
2023-05-02T19:02:40.602Z,102631.94
2023-05-02T19:08:02.484Z,102644.13
2023-05-02T19:13:27.193Z,102649.88
2023-05-02T19:18:52.579Z,102649.44
2023-05-02T19:24:14.218Z,102665.69
2023-05-02T19:29:36.085Z,102664.81
2023-05-02T19:34:58.219Z,102669.06
2023-05-02T19:40:20.009Z,102671.84
2023-05-02T19:45:42.141Z,102678.50
2023-05-02T19:51:05.158Z,102695.19
2023-05-02T19:56:27.559Z,102690.94
2023-05-02T20:01:50.172Z,102708.06
2023-05-02T20:07:11.955Z,102699.31
2023-05-02T20:12:34.102Z,102709.59
2023-05-02T20:17:58.187Z,102707.25
2023-05-02T20:23:20.078Z,102705.78
2023-05-02T20:28:42.173Z,102721.41
2023-05-02T20:34:04.034Z,102729.56
2023-05-02T20:39:26.122Z,102727.03
2023-05-02T20:44:47.965Z,102737.94
2023-05-02T20:50:09.932Z,102738.81
2023-05-02T20:55:31.697Z,102732.38
2023-05-02T21:00:54.326Z,102734.97
2023-05-02T21:06:16.196Z,102740.72
2023-05-02T21:11:38.019Z,102746.09
2023-05-02T21:16:59.834Z,102743.09
2023-05-02T21:22:22.075Z,102742.91
2023-05-02T21:27:44.051Z,102748.22
2023-05-02T21:33:06.154Z,102749.72
2023-05-02T21:38:28.019Z,102750.38
2023-05-02T21:43:49.915Z,102744.38
2023-05-02T21:49:11.816Z,102737.53
2023-05-02T21:54:33.761Z,102733.50
2023-05-02T21:59:55.590Z,102746.72
2023-05-02T22:05:17.527Z,102748.22
2023-05-02T22:10:42.492Z,102745.84
2023-05-02T22:16:04.604Z,102736.25
2023-05-02T22:21:27.432Z,102734.94
2023-05-02T22:26:50.761Z,102729.78
2023-05-02T22:32:12.655Z,102726.56
2023-05-02T22:37:34.560Z,102735.31
2023-05-02T22:42:56.363Z,102743.22
2023-05-02T22:48:18.269Z,102750.06
2023-05-02T22:53:40.596Z,102763.31
2023-05-02T22:59:02.522Z,102762.88
2023-05-02T23:04:24.329Z,102759.44
2023-05-02T23:09:46.185Z,102751.13
2023-05-02T23:15:08.980Z,102755.19
2023-05-02T23:20:30.744Z,102751.75
2023-05-02T23:25:52.540Z,102740.22
2023-05-02T23:31:14.417Z,102744.22
2023-05-02T23:36:36.596Z,102751.06
2023-05-02T23:41:58.513Z,102738.25
2023-05-02T23:47:20.344Z,102735.88
2023-05-02T23:52:42.484Z,102740.81
2023-05-02T23:58:04.304Z,102748.28
